Time;durP1;ratioP1;P1;durP2;ratioP2;P2;SDS_P1;SDS_P2;PMS_P1;PMS_P2;Temp;Humidity;BMP_temperature;BMP_pressure;BME280_temperature;BME280_humidity;BME280_pressure;Samples;Min_cycle;Max_cycle;Signal;HPM_P1;HPM_P2
2022/08/09 00:01:38;;;;;;;5.45;4.85;;;;;;;18.10;68.72;102410.06;3586347;40;20062;-64
2022/08/09 00:04:04;;;;;;;7.90;5.05;;;;;;;18.20;68.58;102428.47;3586713;40;20148;-64
2022/08/09 00:06:31;;;;;;;5.68;4.47;;;;;;;18.19;68.78;102432.19;3585577;39;20322;-64
2022/08/09 00:08:56;;;;;;;7.60;4.70;;;;;;;18.26;68.41;102444.41;3589828;40;20088;-63
2022/08/09 00:11:22;;;;;;;6.47;4.88;;;;;;;18.06;68.79;102402.22;3587456;40;20059;-64
2022/08/09 00:13:50;;;;;;;7.88;4.97;;;;;;;18.14;68.40;102432.53;3588128;40;20048;-64
2022/08/09 00:16:17;;;;;;;6.05;4.75;;;;;;;18.16;68.40;102427.81;3584238;40;20104;-64
2022/08/09 00:18:43;;;;;;;6.50;4.75;;;;;;;18.17;69.18;102437.72;3584957;40;20079;-64
2022/08/09 00:21:09;;;;;;;6.40;4.60;;;;;;;18.15;68.56;102434.25;3585899;40;20314;-64
2022/08/09 00:23:37;;;;;;;7.35;5.10;;;;;;;18.12;68.84;102439.91;3587680;40;20056;-64
2022/08/09 00:26:06;;;;;;;6.57;4.32;;;;;;;18.11;69.09;102438.16;3589716;40;20121;-64
2022/08/09 00:28:33;;;;;;;6.75;4.85;;;;;;;18.08;69.62;102438.38;3587781;39;20064;-64
2022/08/09 00:30:59;;;;;;;6.75;4.88;;;;;;;18.07;69.06;102444.78;3589774;40;20066;-63
2022/08/09 00:33:25;;;;;;;5.10;4.55;;;;;;;18.00;69.64;102430.72;3584690;39;20071;-64
2022/08/09 00:35:51;;;;;;;6.45;4.60;;;;;;;18.01;69.40;102434.31;3585395;40;20062;-64
2022/08/09 00:38:17;;;;;;;4.72;4.32;;;;;;;17.96;69.11;102429.19;3588566;39;20052;-64
2022/08/09 00:40:43;;;;;;;8.55;5.10;;;;;;;17.98;69.09;102432.69;3586601;40;20055;-64
2022/08/09 00:43:09;;;;;;;5.45;4.93;;;;;;;17.96;68.73;102434.63;3587171;40;20074;-63
2022/08/09 00:45:35;;;;;;;6.13;4.60;;;;;;;17.94;69.50;102442.00;3588809;39;20342;-63
2022/08/09 00:48:03;;;;;;;8.38;4.65;;;;;;;17.89;69.41;102438.75;3586484;40;20044;-64
2022/08/09 00:50:29;;;;;;;6.70;4.80;;;;;;;17.89;69.66;102436.03;3585489;40;20068;-64
2022/08/09 00:52:56;;;;;;;6.68;4.50;;;;;;;17.91;69.65;102431.34;3587129;40;20044;-63
2022/08/09 00:55:22;;;;;;;9.88;4.68;;;;;;;17.89;69.38;102438.75;3588064;39;20068;-64
2022/08/09 00:57:48;;;;;;;4.80;4.32;;;;;;;17.90;69.33;102435.03;3586042;40;20058;-64
2022/08/09 01:00:14;;;;;;;6.00;4.32;;;;;;;17.90;68.72;102440.47;3583472;40;20048;-64
2022/08/09 01:02:49;;;;;;;5.20;4.20;;;;;;;17.90;69.25;102437.75;3585129;40;20534;-64
2022/08/09 01:05:41;;;;;;;7.82;4.70;;;;;;;17.93;69.42;102439.41;3584003;40;20059;-64
2022/08/09 01:08:33;;;;;;;5.32;4.30;;;;;;;17.86;68.31;102437.09;3587024;40;20048;-64
2022/08/09 01:11:22;;;;;;;9.20;4.63;;;;;;;17.85;68.36;102429.88;3587043;40;20129;-64
2022/08/09 01:14:08;;;;;;;8.40;4.90;;;;;;;17.83;69.36;102440.03;3587072;40;20054;-64
2022/08/09 01:16:50;;;;;;;6.32;4.53;;;;;;;17.80;68.69;102440.22;3588121;40;20056;-64
2022/08/09 01:19:51;;;;;;;6.07;4.90;;;;;;;17.76;68.83;102437.75;3587283;40;20060;-64
2022/08/09 01:22:50;;;;;;;4.90;4.22;;;;;;;17.73;69.50;102438.88;3585291;40;20488;-64
2022/08/09 01:26:08;;;;;;;6.75;4.60;;;;;;;17.71;68.84;102438.09;3588158;40;20054;-63
2022/08/09 01:28:42;;;;;;;4.93;4.45;;;;;;;17.68;69.52;102451.88;3587300;40;20057;-63
2022/08/09 01:31:16;;;;;;;5.35;4.35;;;;;;;17.66;69.11;102442.94;3588939;39;20048;-63
2022/08/09 01:33:47;;;;;;;7.45;4.55;;;;;;;17.64;68.85;102439.47;3590857;39;20137;-63
2022/08/09 01:36:21;;;;;;;6.05;4.63;;;;;;;17.60;69.47;102444.25;3588501;40;20054;-63
2022/08/09 01:38:51;;;;;;;6.30;4.40;;;;;;;17.57;69.10;102433.56;3588932;40;20052;-63
2022/08/09 01:41:23;;;;;;;7.90;5.05;;;;;;;17.55;69.98;102429.19;3587603;40;20048;-63
2022/08/09 01:44:03;;;;;;;7.43;4.85;;;;;;;17.52;69.84;102432.97;3586200;40;20076;-63
2022/08/09 01:46:36;;;;;;;7.63;4.72;;;;;;;17.51;70.04;102433.09;3590580;40;20113;-64
2022/08/09 01:49:18;;;;;;;6.82;4.93;;;;;;;17.38;69.92;102417.59;3592852;40;20358;-64
2022/08/09 01:51:58;;;;;;;5.18;4.50;;;;;;;17.38;69.43;102428.47;3591865;39;20055;-64
2022/08/09 01:54:38;;;;;;;6.93;4.75;;;;;;;17.45;69.57;102436.22;3588614;39;20088;-64
2022/08/09 01:57:12;;;;;;;7.72;4.78;;;;;;;17.40;69.42;102434.66;3585841;40;20401;-63
2022/08/09 01:59:45;;;;;;;6.57;4.80;;;;;;;17.33;69.96;102432.44;3583592;40;20090;-64
2022/08/09 02:02:15;;;;;;;6.45;5.18;;;;;;;17.32;70.26;102437.00;3588859;40;20369;-63
2022/08/09 02:04:42;;;;;;;6.00;4.78;;;;;;;17.16;70.68;102428.97;3589096;39;20064;-64
2022/08/09 02:07:15;;;;;;;7.25;4.95;;;;;;;17.24;70.61;102446.63;3585130;40;20055;-64
2022/08/09 02:09:51;;;;;;;6.03;5.20;;;;;;;17.20;70.90;102443.22;3583618;40;20312;-64
2022/08/09 02:12:21;;;;;;;8.68;5.30;;;;;;;17.18;70.63;102454.19;3585489;40;20085;-63
2022/08/09 02:14:53;;;;;;;7.15;4.97;;;;;;;17.15;70.73;102450.78;3591430;40;20190;-64
2022/08/09 02:17:27;;;;;;;7.97;5.60;;;;;;;17.14;70.91;102447.22;3590315;39;20093;-64
2022/08/09 02:19:53;;;;;;;6.38;5.18;;;;;;;17.09;71.75;102451.19;3592107;40;20048;-63
2022/08/09 02:22:38;;;;;;;5.85;5.07;;;;;;;17.09;71.04;102454.75;3585438;40;20075;-64
2022/08/09 02:25:22;;;;;;;8.15;5.30;;;;;;;17.07;70.96;102445.84;3589919;40;20129;-64
2022/08/09 02:28:00;;;;;;;5.95;5.35;;;;;;;17.07;71.43;102445.00;3585340;40;20053;-64
2022/08/09 02:30:35;;;;;;;5.97;5.30;;;;;;;16.99;70.93;102442.75;3590361;40;20144;-64
2022/08/09 02:33:04;;;;;;;7.85;5.25;;;;;;;17.01;71.32;102445.38;3593296;40;20091;-64
2022/08/09 02:35:35;;;;;;;5.60;5.07;;;;;;;17.01;71.35;102437.22;3592839;40;20047;-64
2022/08/09 02:38:05;;;;;;;7.47;5.03;;;;;;;16.99;71.15;102440.03;3587882;40;20104;-64
2022/08/09 02:40:37;;;;;;;5.28;4.78;;;;;;;16.98;70.97;102438.28;3585168;40;20086;-64
2022/08/09 02:43:09;;;;;;;6.32;5.03;;;;;;;17.01;70.81;102434.50;3592568;40;20048;-63
2022/08/09 02:45:42;;;;;;;7.43;5.25;;;;;;;16.96;71.68;102437.50;3587412;39;20040;-64
2022/08/09 02:48:15;;;;;;;8.85;5.28;;;;;;;16.94;71.47;102439.47;3592806;39;20047;-64
2022/08/09 02:50:49;;;;;;;7.03;4.85;;;;;;;16.91;71.75;102435.09;3591783;39;20054;-63
2022/08/09 02:53:33;;;;;;;;;;;;;;;16.92;71.59;102439.53;3592198;39;20586;-64
2022/08/09 02:56:05;;;;;;;5.95;5.35;;;;;;;16.88;71.69;102429.84;3591107;40;20251;-63
2022/08/09 02:58:34;;;;;;;6.93;5.40;;;;;;;16.83;71.89;102431.97;3588348;40;20364;-63
2022/08/09 03:01:02;;;;;;;6.10;5.50;;;;;;;16.81;71.51;102431.22;3589673;40;20043;-63
2022/08/09 03:03:32;;;;;;;8.52;5.50;;;;;;;16.79;72.05;102435.84;3589682;39;20036;-63
2022/08/09 03:06:01;;;;;;;7.60;5.53;;;;;;;16.75;71.95;102430.69;3590068;40;20084;-63
2022/08/09 03:08:30;;;;;;;6.47;5.30;;;;;;;16.68;71.97;102433.78;3593755;39;20384;-63
2022/08/09 03:10:58;;;;;;;5.28;4.88;;;;;;;16.67;72.61;102426.59;3586874;40;20049;-62
2022/08/09 03:13:26;;;;;;;6.78;5.70;;;;;;;16.67;71.90;102431.16;3589298;40;20047;-63
2022/08/09 03:15:55;;;;;;;5.90;5.30;;;;;;;16.66;72.46;102426.69;3589560;40;20704;-63
2022/08/09 03:18:22;;;;;;;6.32;5.72;;;;;;;16.62;72.45;102427.84;3585422;40;20379;-63
2022/08/09 03:20:51;;;;;;;6.40;5.70;;;;;;;16.57;72.39;102435.41;3591445;40;20388;-63
2022/08/09 03:23:18;;;;;;;7.78;6.22;;;;;;;16.56;72.75;102429.09;3590847;40;20044;-63
2022/08/09 03:25:47;;;;;;;8.13;6.15;;;;;;;16.35;73.19;102396.00;3588706;39;20075;-63
2022/08/09 03:28:15;;;;;;;6.47;5.88;;;;;;;16.52;73.39;102432.09;3592900;39;20402;-63
2022/08/09 03:30:42;;;;;;;8.18;6.53;;;;;;;16.50;73.26;102431.31;3590843;39;20177;-63
2022/08/09 03:33:10;;;;;;;8.43;6.50;;;;;;;16.46;73.77;102431.50;3584413;40;20117;-63
2022/08/09 03:35:35;;;;;;;7.07;6.22;;;;;;;16.42;73.28;102432.63;3584359;40;20468;-63
2022/08/09 03:38:02;;;;;;;7.93;6.32;;;;;;;16.44;73.41;102435.28;3592779;40;20051;-63
2022/08/09 03:40:29;;;;;;;7.05;5.97;;;;;;;16.28;73.62;102410.91;3585753;39;20113;-63
2022/08/09 03:42:54;;;;;;;8.30;6.35;;;;;;;16.41;73.38;102436.34;3588027;39;20052;-63
2022/08/09 03:45:20;;;;;;;9.85;6.63;;;;;;;16.38;73.86;102433.81;3590281;40;20222;-63
2022/08/09 03:47:45;;;;;;;7.53;6.38;;;;;;;16.36;73.65;102432.16;3587174;39;20056;-63
2022/08/09 03:50:13;;;;;;;7.25;6.38;;;;;;;16.32;74.34;102431.47;3589740;40;20048;-63
2022/08/09 03:52:42;;;;;;;9.10;6.55;;;;;;;16.31;74.14;102435.16;3591646;39;20051;-63
2022/08/09 03:55:12;;;;;;;8.18;6.25;;;;;;;16.29;74.04;102442.50;3591314;39;20378;-63
2022/08/09 03:57:39;;;;;;;8.15;6.25;;;;;;;16.28;73.89;102435.34;3585219;40;20044;-63
2022/08/09 04:00:05;;;;;;;10.63;6.93;;;;;;;16.28;74.10;102440.75;3584126;40;20122;-63
2022/08/09 04:02:32;;;;;;;7.38;6.68;;;;;;;16.25;74.05;102441.81;3584099;40;20052;-63
2022/08/09 04:05:02;;;;;;;8.45;6.57;;;;;;;16.23;74.26;102438.31;3588524;40;20118;-63
2022/08/09 04:07:29;;;;;;;7.13;6.18;;;;;;;16.20;74.34;102438.50;3592153;39;20059;-63
2022/08/09 04:09:55;;;;;;;6.95;6.22;;;;;;;16.19;74.43;102428.63;3592226;40;20486;-63
2022/08/09 04:12:42;;;;;;;6.75;6.07;;;;;;;16.19;74.35;102430.47;3588327;39;20048;-63
2022/08/09 04:15:08;;;;;;;7.00;6.30;;;;;;;16.18;74.85;102431.44;3589619;40;20074;-63
2022/08/09 04:17:34;;;;;;;7.18;6.22;;;;;;;16.01;74.25;102406.16;3591105;39;20063;-63
2022/08/09 04:20:00;;;;;;;8.43;6.22;;;;;;;16.17;74.53;102429.66;3589288;40;20311;-63
2022/08/09 04:22:25;;;;;;;10.63;7.53;;;;;;;16.17;74.36;102426.94;3592423;39;20094;-63
2022/08/09 04:24:51;;;;;;;8.73;6.35;;;;;;;16.17;74.75;102433.25;3589591;40;20088;-63
2022/08/09 04:27:17;;;;;;;8.02;6.88;;;;;;;16.14;74.74;102438.88;3592504;39;20048;-63
2022/08/09 04:29:43;;;;;;;8.30;7.45;;;;;;;16.14;74.83;102443.41;3587967;39;21552;-63
2022/08/09 04:32:08;;;;;;;7.45;6.47;;;;;;;16.10;74.93;102445.44;3591221;39;20190;-63
2022/08/09 04:34:34;;;;;;;7.90;7.10;;;;;;;16.12;75.00;102450.78;3588755;39;20062;-63
2022/08/09 04:37:00;;;;;;;7.47;6.68;;;;;;;16.11;74.81;102454.44;3591488;40;20082;-63
2022/08/09 04:39:27;;;;;;;7.93;6.82;;;;;;;15.91;75.12;102423.94;3587268;40;20056;-64
2022/08/09 04:41:52;;;;;;;8.68;6.95;;;;;;;16.14;74.72;102459.69;3584841;40;20125;-63
2022/08/09 04:44:18;;;;;;;7.85;7.07;;;;;;;16.16;74.44;102458.63;3585277;40;20172;-63
2022/08/09 04:46:44;;;;;;;7.45;6.75;;;;;;;16.15;74.40;102453.31;3588362;39;20330;-63
2022/08/09 04:49:09;;;;;;;9.95;7.35;;;;;;;16.13;75.15;102460.66;3592017;39;20067;-63
2022/08/09 04:51:35;;;;;;;8.60;7.10;;;;;;;16.12;75.26;102457.09;3584594;39;20125;-63
2022/08/09 04:54:01;;;;;;;11.52;7.20;;;;;;;16.09;75.04;102456.41;3587494;40;20059;-62
2022/08/09 04:56:29;;;;;;;9.27;6.72;;;;;;;16.15;75.02;102465.03;3584433;40;20075;-63
2022/08/09 04:58:55;;;;;;;8.55;7.28;;;;;;;16.13;75.42;102469.66;3585433;39;20048;-63
2022/08/09 05:01:20;;;;;;;12.77;7.60;;;;;;;16.15;75.70;102464.16;3583863;40;20056;-63
2022/08/09 05:03:46;;;;;;;11.20;7.72;;;;;;;16.15;75.11;102467.75;3590991;40;20409;-63
2022/08/09 05:06:11;;;;;;;8.25;7.45;;;;;;;16.17;75.36;102475.78;3586665;39;20057;-63
2022/08/09 05:08:37;;;;;;;9.20;7.30;;;;;;;16.17;75.67;102478.50;3596413;39;20055;-62
2022/08/09 05:11:04;;;;;;;8.73;7.47;;;;;;;16.18;75.28;102480.28;3590895;40;20047;-63
2022/08/09 05:13:29;;;;;;;9.18;7.80;;;;;;;16.19;75.79;102476.59;3587590;39;20060;-62
2022/08/09 05:15:55;;;;;;;11.15;8.25;;;;;;;16.19;75.60;102473.88;3588373;40;20055;-63
2022/08/09 05:18:21;;;;;;;9.73;8.10;;;;;;;16.17;75.76;102471.22;3589474;39;20056;-62
2022/08/09 05:20:46;;;;;;;10.40;8.30;;;;;;;16.21;75.54;102485.53;3590634;39;21261;-63
2022/08/09 05:23:12;;;;;;;10.10;7.43;;;;;;;16.25;75.30;102479.81;3591481;39;20424;-62
2022/08/09 05:25:38;;;;;;;9.27;8.02;;;;;;;16.28;75.66;102476.03;3588738;39;20084;-62
2022/08/09 05:28:04;;;;;;;9.23;8.20;;;;;;;16.30;75.34;102479.56;3583622;39;20091;-63
2022/08/09 05:30:29;;;;;;;10.73;8.38;;;;;;;16.33;75.88;102479.34;3590101;40;20047;-64
2022/08/09 05:32:55;;;;;;;11.13;8.38;;;;;;;16.26;75.45;102448.09;3591756;40;20371;-64
2022/08/09 05:35:21;;;;;;;8.70;7.90;;;;;;;16.48;75.05;102466.69;3589867;40;20064;-63
2022/08/09 05:37:47;;;;;;;13.13;8.25;;;;;;;16.51;74.94;102469.22;3590324;39;20110;-63
2022/08/09 05:40:14;;;;;;;10.60;8.20;;;;;;;16.53;74.84;102472.72;3587520;40;20139;-63
2022/08/09 05:42:40;;;;;;;9.18;8.20;;;;;;;16.56;74.78;102477.09;3585727;40;20424;-64
2022/08/09 05:45:06;;;;;;;10.70;8.25;;;;;;;16.62;75.17;102482.16;3590295;39;20075;-64
2022/08/09 05:47:32;;;;;;;9.30;8.15;;;;;;;16.63;74.69;102483.91;3589985;39;20382;-64
2022/08/09 05:49:58;;;;;;;11.00;8.57;;;;;;;16.67;74.69;102485.44;3589043;40;20058;-63
2022/08/09 05:52:23;;;;;;;11.63;8.63;;;;;;;16.71;74.63;102504.19;3586997;39;20044;-63
2022/08/09 05:54:49;;;;;;;9.65;8.23;;;;;;;16.77;74.42;102485.78;3583831;40;20298;-63
2022/08/09 05:57:16;;;;;;;9.98;8.48;;;;;;;16.82;74.79;102495.41;3588401;40;20044;-63
2022/08/09 05:59:41;;;;;;;10.02;8.52;;;;;;;16.87;74.15;102487.88;3586991;40;20063;-63
2022/08/09 06:02:07;;;;;;;10.73;7.82;;;;;;;16.93;74.21;102495.59;3583775;40;20056;-63
2022/08/09 06:04:33;;;;;;;12.15;8.57;;;;;;;16.98;74.43;102494.47;3584317;40;20330;-64
2022/08/09 06:06:59;;;;;;;9.40;8.40;;;;;;;17.04;74.61;102502.25;3587972;40;20075;-63
2022/08/09 06:09:24;;;;;;;10.77;8.73;;;;;;;17.07;74.62;102502.06;3590012;40;20048;-63
2022/08/09 06:11:50;;;;;;;13.50;8.73;;;;;;;17.13;74.52;102501.66;3585604;40;20048;-63
2022/08/09 06:14:16;;;;;;;12.77;8.50;;;;;;;17.22;74.01;102501.09;3583533;40;20052;-63
2022/08/09 06:16:42;;;;;;;12.73;7.97;;;;;;;17.29;73.66;102498.84;3583668;40;20075;-63
2022/08/09 06:19:08;;;;;;;9.70;8.55;;;;;;;17.36;74.34;102511.94;3584122;40;20048;-63
2022/08/09 06:21:34;;;;;;;11.32;9.35;;;;;;;17.37;73.58;102497.38;3583412;40;20052;-63
2022/08/09 06:23:59;;;;;;;10.13;8.43;;;;;;;17.54;73.84;102509.03;3590220;40;20401;-64
2022/08/09 06:26:25;;;;;;;9.93;8.13;;;;;;;17.63;72.78;102512.03;3583413;40;20409;-63
2022/08/09 06:28:55;;;;;;;12.00;8.05;;;;;;;17.77;72.99;102508.44;3590225;40;20052;-63
2022/08/09 06:31:20;;;;;;;11.10;8.43;;;;;;;17.89;73.10;102514.03;3588256;39;20052;-64
2022/08/09 06:33:46;;;;;;;12.10;8.50;;;;;;;18.02;71.55;102517.72;3589485;40;20321;-64
2022/08/09 06:36:12;;;;;;;9.77;7.85;;;;;;;18.12;71.10;102516.13;3588511;40;20062;-64
2022/08/09 06:38:39;;;;;;;11.25;8.50;;;;;;;18.24;72.26;102520.75;3589058;40;20059;-63
2022/08/09 06:41:05;;;;;;;11.07;8.68;;;;;;;18.39;71.92;102520.66;3588934;39;20043;-64
2022/08/09 06:43:31;;;;;;;10.13;7.97;;;;;;;18.59;70.53;102513.88;3589322;39;20048;-64
2022/08/09 06:45:57;;;;;;;9.20;7.97;;;;;;;18.75;70.49;102515.47;3585665;40;20123;-63
2022/08/09 06:48:23;;;;;;;10.93;7.53;;;;;;;18.87;69.06;102513.75;3585248;39;20055;-64
2022/08/09 06:50:49;;;;;;;10.45;7.18;;;;;;;18.87;68.05;102481.03;3583996;40;20271;-63
2022/08/09 06:53:14;;;;;;;10.65;7.28;;;;;;;19.30;67.67;102516.13;3590603;39;20083;-63
2022/08/09 06:55:40;;;;;;;12.82;8.23;;;;;;;19.48;67.26;102525.72;3588930;40;20059;-63
2022/08/09 06:58:06;;;;;;;8.48;7.38;;;;;;;19.66;66.96;102525.38;3591258;40;20058;-63
2022/08/09 07:00:34;;;;;;;10.77;7.30;;;;;;;19.87;65.05;102521.06;3587741;40;20052;-63
2022/08/09 07:03:01;;;;;;;9.43;7.03;;;;;;;20.06;65.41;102526.00;3592715;40;20125;-64
2022/08/09 07:05:26;;;;;;;8.75;7.40;;;;;;;20.30;64.65;102522.44;3588684;39;20048;-63
2022/08/09 07:07:53;;;;;;;10.43;7.25;;;;;;;20.35;64.12;102518.34;3589072;40;20060;-64
2022/08/09 07:10:21;;;;;;;10.18;7.65;;;;;;;20.51;63.54;102518.06;3591697;39;20050;-63
2022/08/09 07:12:47;;;;;;;9.25;7.28;;;;;;;20.60;63.39;102530.16;3591288;40;20100;-64
2022/08/09 07:15:13;;;;;;;11.32;7.20;;;;;;;20.77;62.50;102532.47;3587315;39;20055;-64
2022/08/09 07:17:38;;;;;;;9.00;6.93;;;;;;;20.89;61.21;102532.47;3585072;40;20063;-64
2022/08/09 07:20:05;;;;;;;8.13;7.00;;;;;;;21.08;61.38;102536.38;3587847;40;20048;-64
2022/08/09 07:22:30;;;;;;;8.07;6.97;;;;;;;21.20;61.09;102528.19;3589257;40;20047;-63
2022/08/09 07:24:56;;;;;;;9.90;6.63;;;;;;;21.37;61.17;102529.59;3592280;40;20041;-63
2022/08/09 07:27:21;;;;;;;10.55;7.05;;;;;;;21.46;60.82;102528.84;3586537;40;20048;-64
2022/08/09 07:29:47;;;;;;;8.80;6.68;;;;;;;21.63;59.65;102532.94;3586680;39;20056;-64
2022/08/09 07:32:13;;;;;;;10.45;6.72;;;;;;;21.78;59.24;102539.91;3587875;40;20065;-64
2022/08/09 07:34:38;;;;;;;8.55;6.80;;;;;;;21.87;59.21;102533.66;3591832;39;20056;-64
2022/08/09 07:37:04;;;;;;;8.10;6.45;;;;;;;22.04;58.96;102540.47;3586130;40;20056;-64
2022/08/09 07:39:29;;;;;;;8.32;6.57;;;;;;;22.17;57.72;102534.88;3588796;40;20063;-63
2022/08/09 07:41:55;;;;;;;8.90;6.78;;;;;;;22.25;57.43;102532.38;3585710;40;20079;-64
2022/08/09 07:44:20;;;;;;;7.82;6.05;;;;;;;22.39;56.73;102533.94;3587501;40;20056;-64
2022/08/09 07:46:46;;;;;;;6.38;5.78;;;;;;;22.58;56.52;102538.72;3585384;39;20068;-64
2022/08/09 07:49:12;;;;;;;9.52;6.20;;;;;;;22.64;57.05;102516.25;3585958;40;20071;-64
2022/08/09 07:51:38;;;;;;;9.45;6.40;;;;;;;22.79;56.36;102528.63;3587507;40;20328;-64
2022/08/09 07:54:04;;;;;;;8.80;6.85;;;;;;;22.94;56.30;102530.09;3589223;40;20051;-64
2022/08/09 07:56:32;;;;;;;10.32;6.72;;;;;;;22.99;54.98;102537.03;3591390;39;20044;-64
2022/08/09 07:58:58;;;;;;;8.18;6.10;;;;;;;22.99;55.34;102523.31;3591478;40;20129;-64
2022/08/09 08:01:24;;;;;;;9.13;5.53;;;;;;;23.26;54.58;102537.34;3591099;39;20428;-64
2022/08/09 08:03:50;;;;;;;10.15;6.43;;;;;;;23.51;53.91;102532.41;3591581;40;20055;-64
2022/08/09 08:06:15;;;;;;;7.60;5.45;;;;;;;23.64;54.26;102539.41;3590085;39;20364;-65
2022/08/09 08:08:41;;;;;;;7.93;6.13;;;;;;;23.74;53.56;102549.59;3590879;39;20070;-64
2022/08/09 08:11:07;;;;;;;8.35;5.70;;;;;;;23.90;53.24;102549.91;3590389;39;20060;-64
2022/08/09 08:13:32;;;;;;;6.22;5.15;;;;;;;24.07;52.94;102551.09;3590357;39;20390;-63
2022/08/09 08:15:58;;;;;;;9.10;6.40;;;;;;;24.13;52.41;102552.44;3584775;40;20129;-65
2022/08/09 08:18:23;;;;;;;7.22;5.03;;;;;;;24.27;51.58;102547.41;3587079;40;20052;-65
2022/08/09 08:20:49;;;;;;;8.45;5.63;;;;;;;24.36;52.33;102551.19;3590895;40;20091;-65
2022/08/09 08:23:16;;;;;;;6.03;5.18;;;;;;;24.49;50.69;102540.81;3589225;39;20052;-65
2022/08/09 08:25:46;;;;;;;8.65;4.70;;;;;;;24.64;51.95;102537.59;3584248;40;20063;-65
2022/08/09 08:28:13;;;;;;;6.05;4.80;;;;;;;24.79;50.42;102539.75;3584493;40;20052;-64
2022/08/09 08:30:38;;;;;;;6.65;5.43;;;;;;;24.97;49.04;102533.53;3584070;40;20052;-65
2022/08/09 08:33:04;;;;;;;6.88;4.75;;;;;;;25.05;48.56;102536.38;3588874;40;20125;-65
2022/08/09 08:35:30;;;;;;;6.00;4.68;;;;;;;25.18;48.82;102536.09;3588435;39;20047;-65
2022/08/09 08:37:56;;;;;;;5.25;4.30;;;;;;;25.32;48.56;102534.75;3586702;40;20058;-65
2022/08/09 08:40:22;;;;;;;5.72;3.78;;;;;;;25.38;48.83;102514.91;3587732;40;20052;-65
2022/08/09 08:42:47;;;;;;;8.13;3.95;;;;;;;25.58;46.78;102516.53;3591126;39;20063;-65
2022/08/09 08:45:20;;;;;;;4.47;3.80;;;;;;;25.86;46.24;102538.59;3585639;40;20044;-65
2022/08/09 08:47:46;;;;;;;;;;;;;;;25.91;45.26;102534.38;3590993;40;20051;-62
2022/08/09 08:50:15;;;;;;;7.93;4.00;;;;;;;26.04;45.65;102534.00;3586230;40;19932;-63
2022/08/09 08:52:42;;;;;;;7.72;4.10;;;;;;;25.99;45.89;102536.34;3584594;40;20071;-63
2022/08/09 08:55:10;;;;;;;6.63;4.00;;;;;;;26.11;45.84;102540.63;3589785;39;20044;-65
2022/08/09 08:57:36;;;;;;;7.60;4.63;;;;;;;26.09;45.35;102526.13;3585546;40;20102;-64
2022/08/09 09:00:05;;;;;;;5.07;3.28;;;;;;;26.20;44.47;102535.19;3591096;40;20052;-64
2022/08/09 09:02:32;;;;;;;4.20;2.88;;;;;;;26.45;43.52;102548.22;3589841;40;20052;-64
2022/08/09 09:05:00;;;;;;;4.47;2.95;;;;;;;26.56;44.22;102550.75;3587142;40;20086;-64
2022/08/09 09:07:29;;;;;;;4.30;2.10;;;;;;;26.66;42.32;102545.16;3584031;40;20056;-64
2022/08/09 09:09:57;;;;;;;3.50;1.90;;;;;;;26.84;41.91;102553.44;3587286;40;20044;-65
2022/08/09 09:12:26;;;;;;;2.30;1.60;;;;;;;26.91;40.40;102548.13;3584379;40;20075;-64
2022/08/09 09:14:52;;;;;;;3.35;2.42;;;;;;;27.11;41.48;102562.59;3589663;40;20051;-64
2022/08/09 09:17:19;;;;;;;5.28;2.30;;;;;;;27.26;41.97;102561.00;3586091;39;20052;-64
2022/08/09 09:19:45;;;;;;;2.58;2.10;;;;;;;27.44;42.19;102556.28;3590474;40;20064;-63
2022/08/09 09:22:18;;;;;;;3.33;1.92;;;;;;;27.58;41.04;102565.84;3589067;39;20059;-63
2022/08/09 09:24:46;;;;;;;;;;;;;;;27.63;40.39;102560.72;3590709;39;20050;-63
2022/08/09 09:27:24;;;;;;;2.55;2.03;;;;;;;27.46;40.29;102559.72;3588615;40;19939;-63
2022/08/09 09:29:51;;;;;;;3.30;2.30;;;;;;;27.61;40.35;102576.56;3590783;40;20060;-63
2022/08/09 09:32:26;;;;;;;2.80;2.13;;;;;;;27.69;40.07;102556.44;3591413;39;20088;-63
2022/08/09 09:35:10;;;;;;;3.00;2.13;;;;;;;27.54;40.71;102553.41;3588527;40;20428;-63
2022/08/09 09:37:38;;;;;;;3.70;1.67;;;;;;;27.72;39.43;102564.34;3585522;40;20050;-64
2022/08/09 09:40:06;;;;;;;3.10;1.25;;;;;;;28.03;37.45;102555.53;3587573;39;20039;-63
2022/08/09 09:42:32;;;;;;;4.28;1.27;;;;;;;28.21;38.79;102559.91;3588216;40;20051;-64
2022/08/09 09:45:02;;;;;;;3.58;1.42;;;;;;;28.31;35.97;102547.84;3589891;40;20370;-64
2022/08/09 09:47:29;;;;;;;3.60;1.45;;;;;;;28.62;37.29;102553.63;3583285;40;20070;-63
2022/08/09 09:49:58;;;;;;;3.00;1.30;;;;;;;28.91;37.01;102545.63;3584925;40;20379;-63
2022/08/09 09:52:26;;;;;;;3.17;1.00;;;;;;;28.86;34.47;102559.16;3591007;39;20052;-66
2022/08/09 09:55:02;;;;;;;2.38;1.15;;;;;;;28.77;34.95;102559.34;3587341;40;20048;-65
2022/08/09 09:57:28;;;;;;;1.38;0.95;;;;;;;28.66;34.78;102564.16;3583561;40;20044;-63
2022/08/09 09:59:54;;;;;;;1.92;1.25;;;;;;;28.72;34.82;102561.75;3585352;40;20054;-64
2022/08/09 10:02:21;;;;;;;1.55;1.00;;;;;;;28.83;35.73;102551.19;3587283;39;20044;-63
2022/08/09 10:05:09;;;;;;;1.95;1.45;;;;;;;28.86;35.69;102542.56;3589625;39;20052;-63
2022/08/09 10:07:35;;;;;;;4.60;1.20;;;;;;;29.07;34.55;102555.00;3587160;39;20054;-64
2022/08/09 10:10:01;;;;;;;1.95;0.98;;;;;;;29.16;34.73;102553.97;3585257;40;20055;-64
2022/08/09 10:12:37;;;;;;;1.75;0.93;;;;;;;29.37;34.41;102561.72;3586742;39;20419;-63
2022/08/09 10:15:15;;;;;;;3.25;1.10;;;;;;;29.36;34.24;102558.06;3592557;40;20053;-63
2022/08/09 10:17:49;;;;;;;2.53;1.08;;;;;;;29.36;33.57;102559.97;3588656;39;20068;-64
2022/08/09 10:20:20;;;;;;;2.83;1.05;;;;;;;29.44;34.39;102556.31;3585836;39;20048;-63
2022/08/09 10:22:52;;;;;;;2.25;1.08;;;;;;;29.50;34.02;102552.84;3587682;40;20048;-63
2022/08/09 10:25:18;;;;;;;2.05;1.00;;;;;;;29.51;33.56;102543.47;3591299;39;20044;-63
2022/08/09 10:27:45;;;;;;;3.90;1.13;;;;;;;29.56;33.74;102560.41;3586714;40;20064;-63
2022/08/09 10:30:13;;;;;;;2.60;1.25;;;;;;;29.48;33.03;102555.78;3583383;40;20041;-63
2022/08/09 10:32:40;;;;;;;3.30;1.00;;;;;;;29.40;32.45;102541.94;3585983;40;20483;-65
2022/08/09 10:35:07;;;;;;;3.10;1.08;;;;;;;29.28;34.20;102535.06;3588528;40;20055;-63
2022/08/09 10:37:33;;;;;;;1.55;1.02;;;;;;;29.39;32.91;102543.84;3587426;40;20053;-63
2022/08/09 10:40:00;;;;;;;2.47;1.00;;;;;;;29.59;34.59;102544.31;3590080;40;20055;-63
2022/08/09 10:42:26;;;;;;;2.05;0.95;;;;;;;29.72;33.55;102537.34;3590071;40;20064;-64
2022/08/09 10:45:00;;;;;;;3.33;1.20;;;;;;;29.91;33.58;102536.94;3589841;40;20048;-65
2022/08/09 10:48:00;;;;;;;1.13;0.90;;;;;;;30.02;32.51;102533.75;3592052;39;20419;-64
2022/08/09 10:53:59;;;;;;;2.25;0.90;;;;;;;30.15;32.97;102527.59;3589331;40;20046;-64
2022/08/09 10:56:32;;;;;;;2.53;0.90;;;;;;;30.14;31.96;102530.56;3590157;40;20271;-65
2022/08/09 10:59:22;;;;;;;4.32;2.35;;;;;;;30.05;32.06;102526.97;3589968;40;20060;-64
2022/08/09 11:01:49;;;;;;;1.88;1.02;;;;;;;30.02;31.70;102527.34;3593471;40;20083;-65
2022/08/09 11:04:22;;;;;;;3.17;0.98;;;;;;;30.17;31.83;102522.75;3592254;39;20061;-65
2022/08/09 11:07:08;;;;;;;1.48;0.98;;;;;;;30.30;33.18;102525.78;3588770;40;20306;-62
2022/08/09 11:09:37;;;;;;;1.20;0.70;;;;;;;30.54;31.22;102521.09;3587697;40;20052;-62
2022/08/09 11:12:25;;;;;;;1.15;0.63;;;;;;;30.68;30.14;102517.53;3585709;40;20131;-64
2022/08/09 11:15:00;;;;;;;2.47;0.90;;;;;;;30.90;30.83;102531.59;3590528;40;20059;-63
2022/08/09 11:17:25;;;;;;;2.08;0.80;;;;;;;31.01;30.35;102522.78;3588721;39;20044;-63
2022/08/09 11:20:08;;;;;;;1.58;0.82;;;;;;;30.90;30.33;102523.25;3590762;40;20361;-63
2022/08/09 11:22:40;;;;;;;;;;;;;;;31.03;29.38;102533.72;3585418;40;20056;-64
2022/08/09 11:25:21;;;;;;;3.97;1.00;;;;;;;30.93;30.09;102517.34;3588882;40;19931;-63
2022/08/09 11:27:54;;;;;;;3.35;0.95;;;;;;;31.10;29.57;102510.53;3588362;40;20306;-63
2022/08/09 11:30:25;;;;;;;2.53;0.98;;;;;;;31.40;29.23;102527.28;3585579;40;20059;-63
2022/08/09 11:33:02;;;;;;;1.98;0.82;;;;;;;31.56;29.65;102524.31;3586012;40;20402;-63
2022/08/09 11:35:58;;;;;;;1.23;0.80;;;;;;;31.65;30.05;102512.03;3585678;40;20060;-63
2022/08/09 11:38:27;;;;;;;3.28;0.95;;;;;;;31.57;29.62;102512.13;3588896;40;20287;-63